createdAt,value
2023-04-19T00:01:51.863Z,3.90
2023-04-19T00:04:19.240Z,4.53
2023-04-19T00:06:47.391Z,3.90
2023-04-19T00:09:14.011Z,4.37
2023-04-19T00:11:41.073Z,6.05
2023-04-19T00:14:07.679Z,7.10
2023-04-19T00:16:34.515Z,4.95
2023-04-19T00:19:01.741Z,2.60
2023-04-19T00:21:28.482Z,2.92
2023-04-19T00:23:55.180Z,4.30
2023-04-19T00:26:22.265Z,5.53
2023-04-19T00:28:48.847Z,4.68
2023-04-19T00:31:15.452Z,4.07
2023-04-19T00:33:42.022Z,3.90
2023-04-19T00:36:12.300Z,4.15
2023-04-19T00:38:38.862Z,5.25
2023-04-19T00:41:05.591Z,4.70
2023-04-19T00:43:32.240Z,4.03
2023-04-19T00:45:59.407Z,4.20
2023-04-19T00:48:26.217Z,4.32
2023-04-19T00:50:52.924Z,5.03
2023-04-19T00:53:19.564Z,5.82
2023-04-19T00:55:46.302Z,5.20
2023-04-19T00:58:12.868Z,6.70
2023-04-19T01:00:39.502Z,3.22
2023-04-19T01:03:06.848Z,4.20
2023-04-19T01:05:33.583Z,3.47
2023-04-19T01:08:00.217Z,3.35
2023-04-19T01:10:27.166Z,8.05
2023-04-19T01:12:53.736Z,5.07
2023-04-19T01:15:20.301Z,5.45
2023-04-19T01:17:46.947Z,7.40
2023-04-19T01:20:13.654Z,7.25
2023-04-19T01:22:40.323Z,4.68
2023-04-19T01:25:07.556Z,5.15
2023-04-19T01:27:34.202Z,5.68
2023-04-19T01:30:00.792Z,4.95
2023-04-19T01:32:27.482Z,4.45
2023-04-19T01:34:54.093Z,4.57
2023-04-19T01:37:20.766Z,4.72
2023-04-19T01:39:47.323Z,6.07
2023-04-19T01:42:13.978Z,4.88
2023-04-19T01:44:40.615Z,3.28
2023-04-19T01:47:07.254Z,4.57
2023-04-19T01:49:33.905Z,2.65
2023-04-19T01:52:00.858Z,3.05
2023-04-19T01:54:27.484Z,6.25
2023-04-19T01:56:54.062Z,3.17
2023-04-19T01:59:20.646Z,7.30
2023-04-19T02:01:47.268Z,8.60
2023-04-19T02:04:14.239Z,5.75
2023-04-19T02:06:41.121Z,3.60
2023-04-19T02:09:08.314Z,4.90
2023-04-19T02:11:34.866Z,4.07
2023-04-19T02:14:01.514Z,4.60
2023-04-19T02:16:28.178Z,5.28
2023-04-19T02:18:54.772Z,3.70
2023-04-19T02:21:21.362Z,5.78
2023-04-19T02:23:47.925Z,7.32
2023-04-19T02:26:14.520Z,4.35
2023-04-19T02:28:41.102Z,5.40
2023-04-19T02:31:08.428Z,5.07
2023-04-19T02:33:35.157Z,3.63
2023-04-19T02:36:01.858Z,3.78
2023-04-19T02:38:28.466Z,6.47
2023-04-19T02:40:55.073Z,5.95
2023-04-19T02:43:21.690Z,8.90
2023-04-19T02:45:48.422Z,6.35
2023-04-19T02:48:14.992Z,3.38
2023-04-19T02:50:41.610Z,6.82
2023-04-19T02:53:08.233Z,3.40
2023-04-19T02:55:34.830Z,7.13
2023-04-19T02:58:01.387Z,4.57
2023-04-19T03:00:27.968Z,9.13
2023-04-19T03:02:56.180Z,5.82
2023-04-19T03:05:23.651Z,7.65
2023-04-19T03:07:50.354Z,8.55
2023-04-19T03:10:17.267Z,4.93
2023-04-19T03:12:43.824Z,5.65
2023-04-19T03:15:11.146Z,4.10
2023-04-19T03:17:37.861Z,5.28
2023-04-19T03:20:09.803Z,4.75
2023-04-19T03:22:36.416Z,8.93
2023-04-19T03:25:03.536Z,6.15
2023-04-19T03:27:30.164Z,5.10
2023-04-19T03:29:57.321Z,4.68
2023-04-19T03:32:23.990Z,4.53
2023-04-19T03:34:50.558Z,3.80
2023-04-19T03:37:17.161Z,4.45
2023-04-19T03:39:43.753Z,4.45
2023-04-19T03:42:10.680Z,3.88
2023-04-19T03:44:37.362Z,6.15
2023-04-19T03:47:04.039Z,6.63
2023-04-19T03:49:30.646Z,7.97
2023-04-19T03:51:57.254Z,2.83
2023-04-19T03:54:23.834Z,3.05
2023-04-19T03:56:50.452Z,4.88
2023-04-19T03:59:17.048Z,5.82
2023-04-19T04:01:43.712Z,5.70
2023-04-19T04:04:11.959Z,5.07
2023-04-19T04:06:38.788Z,6.47
2023-04-19T04:09:05.496Z,6.28
2023-04-19T04:11:32.154Z,7.30
2023-04-19T04:13:58.857Z,4.32
2023-04-19T04:16:25.591Z,4.95
2023-04-19T04:18:52.151Z,3.55
2023-04-19T04:21:18.767Z,3.63
2023-04-19T04:23:45.663Z,6.47
2023-04-19T04:26:13.826Z,4.90
2023-04-19T04:28:40.469Z,6.78
2023-04-19T04:31:07.137Z,7.57
2023-04-19T04:33:33.758Z,4.97
2023-04-19T04:36:00.339Z,3.53
2023-04-19T04:38:27.589Z,4.70
2023-04-19T04:40:55.803Z,4.93
2023-04-19T04:43:24.577Z,5.82
2023-04-19T04:45:51.885Z,4.90
2023-04-19T04:48:19.196Z,5.63
2023-04-19T04:50:46.087Z,6.68
2023-04-19T04:53:13.189Z,11.38
2023-04-19T04:55:39.979Z,4.10
2023-04-19T04:58:07.072Z,4.93
2023-04-19T05:00:34.388Z,5.38
2023-04-19T05:03:02.971Z,6.72
2023-04-19T05:07:56.601Z,9.90
2023-04-19T05:10:23.314Z,12.05
2023-04-19T05:12:49.945Z,8.73
2023-04-19T05:15:16.729Z,8.48
2023-04-19T05:17:43.608Z,6.50
2023-04-19T05:20:11.016Z,4.78
2023-04-19T05:22:38.040Z,8.30
2023-04-19T05:25:06.119Z,4.68
2023-04-19T05:27:33.061Z,15.70
2023-04-19T05:29:59.615Z,7.60
2023-04-19T05:32:26.343Z,12.25
2023-04-19T05:34:53.115Z,5.20
2023-04-19T05:37:19.753Z,6.95
2023-04-19T05:39:46.819Z,4.10
2023-04-19T05:42:13.417Z,6.13
2023-04-19T05:44:39.950Z,6.63
2023-04-19T05:47:06.611Z,7.93
2023-04-19T05:49:33.256Z,7.28
2023-04-19T05:51:59.954Z,12.10
2023-04-19T05:54:28.066Z,17.55
2023-04-19T05:56:54.713Z,16.15
2023-04-19T05:59:21.366Z,6.97
2023-04-19T06:01:47.968Z,6.50
2023-04-19T06:04:14.909Z,7.38
2023-04-19T06:06:42.001Z,8.88
2023-04-19T06:09:08.689Z,6.20
2023-04-19T06:11:46.864Z,8.20
2023-04-19T06:14:16.864Z,5.10
2023-04-19T06:16:43.797Z,5.85
2023-04-19T06:19:10.364Z,5.00
2023-04-19T06:21:37.012Z,8.20
2023-04-19T06:24:03.861Z,3.85
2023-04-19T06:26:30.620Z,4.47
2023-04-19T06:28:57.210Z,6.45
2023-04-19T06:31:23.889Z,5.82
2023-04-19T06:33:50.684Z,5.43
2023-04-19T06:36:17.592Z,5.40
2023-04-19T06:38:50.116Z,5.80
2023-04-19T06:41:16.987Z,3.20
2023-04-19T06:43:44.886Z,3.38
2023-04-19T06:46:13.917Z,5.55
2023-04-19T06:48:40.842Z,7.03
2023-04-19T06:51:08.068Z,7.97
2023-04-19T06:53:35.747Z,3.70
2023-04-19T06:56:07.844Z,22.80
2023-04-19T06:58:35.331Z,3.60
2023-04-19T07:01:04.576Z,5.20
2023-04-19T07:03:31.611Z,3.55
2023-04-19T07:05:58.558Z,5.43
2023-04-19T07:08:34.964Z,5.00
2023-04-19T07:11:09.381Z,4.28
2023-04-19T07:14:30.860Z,9.48
2023-04-19T07:16:57.700Z,3.42
2023-04-19T07:19:24.258Z,2.58
2023-04-19T07:21:51.434Z,3.33
2023-04-19T07:24:18.264Z,3.72
2023-04-19T07:26:45.177Z,3.67
2023-04-19T07:29:13.883Z,5.10
2023-04-19T07:31:42.078Z,3.95
2023-04-19T07:34:09.253Z,4.57
2023-04-19T07:36:37.084Z,3.10
2023-04-19T07:39:04.874Z,3.03
2023-04-19T07:41:35.978Z,4.80
2023-04-19T07:44:03.095Z,5.30
2023-04-19T07:46:29.808Z,4.88
2023-04-19T07:48:56.472Z,7.50
2023-04-19T07:51:24.744Z,6.45
2023-04-19T07:56:19.702Z,4.22
2023-04-19T08:01:23.561Z,3.80
2023-04-19T08:03:50.428Z,14.52
2023-04-19T08:06:18.088Z,10.05
2023-04-19T08:08:44.651Z,4.85
2023-04-19T08:11:11.212Z,3.65
2023-04-19T08:13:38.772Z,3.00
2023-04-19T08:18:36.393Z,3.80
2023-04-19T08:21:03.168Z,3.97
2023-04-19T08:23:41.174Z,5.75
2023-04-19T08:26:14.254Z,5.97
2023-04-19T08:28:40.996Z,4.15
2023-04-19T08:31:08.034Z,5.45
2023-04-19T08:33:34.901Z,6.38
2023-04-19T08:36:01.643Z,7.25
2023-04-19T08:38:28.302Z,5.40
2023-04-19T08:40:55.316Z,6.30
2023-04-19T08:43:24.606Z,5.55
2023-04-19T08:45:51.337Z,8.48
2023-04-19T08:48:18.647Z,7.22
2023-04-19T08:51:03.377Z,6.93
2023-04-19T08:53:33.261Z,8.65
2023-04-19T08:58:50.350Z,6.55
2023-04-19T09:01:33.800Z,7.15
2023-04-19T09:04:21.080Z,9.10
2023-04-19T09:06:53.872Z,6.65
2023-04-19T09:11:52.493Z,8.45
2023-04-19T09:14:20.838Z,6.43
2023-04-19T09:16:47.732Z,7.93
2023-04-19T09:19:23.301Z,9.90
2023-04-19T09:21:53.788Z,6.70
2023-04-19T09:25:04.528Z,7.00
2023-04-19T09:27:37.143Z,8.35
2023-04-19T09:30:04.933Z,8.40
2023-04-19T09:32:47.350Z,8.60
2023-04-19T09:35:14.549Z,5.85
2023-04-19T09:38:01.974Z,9.90
2023-04-19T09:40:28.576Z,10.17
2023-04-19T09:43:08.688Z,8.60
2023-04-19T09:45:45.609Z,8.57
2023-04-19T09:48:13.305Z,10.10
2023-04-19T09:50:59.036Z,5.60
2023-04-19T09:53:30.866Z,8.30
2023-04-19T09:56:01.935Z,8.85
2023-04-19T09:58:41.753Z,12.45
2023-04-19T10:01:16.751Z,8.05
2023-04-19T10:03:50.413Z,9.85
2023-04-19T10:08:54.530Z,10.05
2023-04-19T10:11:22.792Z,7.38
2023-04-19T10:16:19.988Z,9.68
2023-04-19T10:18:49.856Z,8.82
2023-04-19T10:21:17.342Z,10.23
2023-04-19T10:23:44.314Z,7.80
2023-04-19T10:26:11.290Z,7.32
2023-04-19T10:28:38.173Z,10.45
2023-04-19T10:31:05.552Z,9.23
2023-04-19T10:33:36.412Z,9.38
2023-04-19T10:36:03.913Z,9.43
2023-04-19T10:38:37.842Z,8.18
2023-04-19T10:41:05.590Z,6.60
2023-04-19T10:43:35.738Z,8.65
2023-04-19T10:46:07.813Z,13.60
2023-04-19T10:48:38.240Z,8.13
2023-04-19T10:51:15.113Z,9.25
2023-04-19T10:53:52.437Z,6.88
2023-04-19T10:56:43.810Z,5.93
2023-04-19T10:59:21.408Z,7.55
2023-04-19T11:01:56.954Z,9.98
2023-04-19T11:04:29.889Z,9.25
2023-04-19T11:07:07.356Z,6.07
2023-04-19T11:09:36.461Z,8.23
2023-04-19T11:12:22.390Z,11.15
2023-04-19T11:14:52.567Z,9.95
2023-04-19T11:17:32.658Z,8.95
2023-04-19T11:20:09.417Z,8.07
2023-04-19T11:22:38.252Z,7.22
2023-04-19T11:25:21.909Z,6.32
2023-04-19T11:27:51.171Z,11.68
2023-04-19T11:30:23.267Z,8.20
2023-04-19T11:32:54.792Z,8.10
2023-04-19T11:35:23.083Z,7.63
2023-04-19T11:37:50.467Z,11.98
2023-04-19T11:40:18.531Z,13.50
2023-04-19T11:42:46.096Z,8.88
2023-04-19T11:45:29.452Z,10.60
2023-04-19T11:47:57.915Z,7.05
2023-04-19T11:50:30.612Z,10.50
2023-04-19T11:52:58.065Z,10.45
2023-04-19T11:55:25.139Z,8.82
2023-04-19T11:57:51.958Z,15.88
2023-04-19T12:00:28.507Z,8.50
2023-04-19T12:02:55.665Z,7.00
2023-04-19T12:05:23.401Z,6.00
2023-04-19T12:08:03.607Z,7.67
2023-04-19T12:10:34.580Z,10.63
2023-04-19T12:13:01.372Z,8.10
2023-04-19T12:15:45.248Z,7.00
2023-04-19T12:18:12.532Z,7.47
2023-04-19T12:20:49.539Z,8.90
2023-04-19T12:23:17.497Z,7.05
2023-04-19T12:25:48.867Z,6.53
2023-04-19T12:28:16.926Z,8.32
2023-04-19T12:30:44.069Z,5.28
2023-04-19T12:33:11.007Z,7.15
2023-04-19T12:35:38.603Z,6.18
2023-04-19T12:38:05.349Z,5.83
2023-04-19T12:40:32.207Z,9.93
2023-04-19T12:42:58.776Z,9.57
2023-04-19T12:45:25.469Z,5.78
2023-04-19T12:47:52.161Z,5.53
2023-04-19T12:50:19.026Z,5.68
2023-04-19T12:52:46.307Z,8.35
2023-04-19T12:55:13.318Z,9.27
2023-04-19T12:57:40.120Z,5.78
2023-04-19T13:00:07.713Z,4.40
2023-04-19T13:02:35.343Z,8.90
2023-04-19T13:05:02.611Z,9.38
2023-04-19T13:07:29.260Z,6.53
2023-04-19T13:09:56.968Z,6.30
2023-04-19T13:12:24.131Z,6.78
2023-04-19T13:14:52.348Z,7.82
2023-04-19T13:19:46.335Z,7.88
2023-04-19T13:22:13.009Z,8.65
2023-04-19T13:24:39.700Z,6.70
2023-04-19T13:27:08.766Z,6.40
2023-04-19T13:29:35.784Z,6.18
2023-04-19T13:32:02.491Z,8.30
2023-04-19T13:34:29.288Z,7.15
2023-04-19T13:36:55.941Z,6.35
2023-04-19T13:39:22.554Z,6.20
2023-04-19T13:41:49.163Z,12.05
2023-04-19T13:44:16.108Z,9.23
2023-04-19T13:46:42.880Z,8.43
2023-04-19T13:49:09.471Z,6.82
2023-04-19T13:51:49.100Z,8.85
2023-04-19T13:54:20.432Z,8.73
2023-04-19T13:56:49.810Z,12.13
2023-04-19T13:59:17.286Z,11.15
2023-04-19T14:01:43.908Z,9.98
2023-04-19T14:04:10.953Z,11.52
2023-04-19T14:06:37.825Z,13.50
2023-04-19T14:09:04.448Z,9.38
2023-04-19T14:11:31.200Z,10.68
2023-04-19T14:13:58.073Z,10.93
2023-04-19T14:16:25.399Z,10.82
2023-04-19T14:18:52.730Z,11.45
2023-04-19T14:21:19.477Z,8.18
2023-04-19T14:23:46.141Z,9.93
2023-04-19T14:26:12.765Z,8.00
2023-04-19T14:28:39.371Z,5.93
2023-04-19T14:31:06.384Z,6.47
2023-04-19T14:33:33.306Z,6.00
2023-04-19T14:36:00.021Z,4.53
2023-04-19T14:38:26.657Z,6.25
2023-04-19T14:40:53.337Z,4.95
2023-04-19T14:43:20.000Z,5.65
2023-04-19T14:45:49.454Z,7.47
2023-04-19T14:48:16.111Z,4.40
2023-04-19T14:50:42.670Z,4.10
2023-04-19T14:53:09.412Z,5.00
2023-04-19T14:55:37.662Z,5.25
2023-04-19T14:58:04.716Z,4.00
2023-04-19T15:00:31.761Z,5.72
2023-04-19T15:02:58.471Z,6.40
2023-04-19T15:05:29.756Z,4.25
2023-04-19T15:07:56.496Z,2.58
2023-04-19T15:10:23.055Z,6.47
2023-04-19T15:12:49.694Z,6.85
2023-04-19T15:15:16.469Z,3.60
2023-04-19T15:17:43.301Z,4.10
2023-04-19T15:20:10.220Z,5.47
2023-04-19T15:22:36.865Z,5.55
2023-04-19T15:25:03.875Z,5.88
2023-04-19T15:27:31.290Z,5.30
2023-04-19T15:29:57.953Z,2.95
2023-04-19T15:32:24.656Z,3.58
2023-04-19T15:34:51.430Z,5.07
2023-04-19T15:37:18.023Z,7.63
2023-04-19T15:39:44.692Z,5.55
2023-04-19T15:42:11.279Z,6.97
2023-04-19T15:44:37.959Z,6.47
2023-04-19T15:47:04.804Z,7.18
2023-04-19T15:49:31.676Z,8.00
2023-04-19T15:51:58.238Z,6.88
2023-04-19T15:54:24.877Z,7.53
2023-04-19T15:56:51.456Z,6.05
2023-04-19T15:59:18.263Z,8.80
2023-04-19T16:01:45.056Z,8.65
2023-04-19T16:04:11.751Z,22.83
2023-04-19T16:06:38.756Z,12.02
2023-04-19T16:09:06.590Z,11.02
2023-04-19T16:11:33.425Z,15.43
2023-04-19T16:14:00.224Z,7.97
2023-04-19T16:16:28.209Z,8.07
2023-04-19T16:18:55.264Z,7.22
2023-04-19T16:21:22.227Z,9.50
2023-04-19T16:23:48.908Z,8.00
2023-04-19T16:26:15.591Z,12.98
2023-04-19T16:28:42.116Z,8.13
2023-04-19T16:31:08.928Z,8.10
2023-04-19T16:33:35.687Z,7.57
2023-04-19T16:36:02.409Z,5.53
2023-04-19T16:38:29.415Z,5.25
2023-04-19T16:40:56.231Z,5.93
2023-04-19T16:43:23.637Z,6.25
2023-04-19T16:45:50.566Z,8.23
2023-04-19T16:48:17.155Z,7.65
2023-04-19T16:50:43.742Z,9.98
2023-04-19T16:53:11.263Z,4.57
2023-04-19T16:55:38.408Z,6.38
2023-04-19T16:58:05.523Z,10.55
2023-04-19T17:00:33.338Z,10.55
2023-04-19T17:03:00.520Z,6.03
2023-04-19T17:05:27.255Z,11.15
2023-04-19T17:07:55.389Z,11.13
2023-04-19T17:10:23.372Z,10.10
2023-04-19T17:12:50.029Z,8.10
2023-04-19T17:15:16.805Z,9.30
2023-04-19T17:17:43.429Z,14.48
2023-04-19T17:20:11.680Z,8.60
2023-04-19T17:22:38.310Z,7.75
2023-04-19T17:25:05.275Z,9.65
2023-04-19T17:27:31.950Z,8.05
2023-04-19T17:29:58.701Z,8.70
2023-04-19T17:32:25.343Z,8.70
2023-04-19T17:34:52.056Z,6.43
2023-04-19T17:37:18.724Z,8.57
2023-04-19T17:39:45.359Z,6.07
2023-04-19T17:42:11.963Z,8.68
2023-04-19T17:44:38.546Z,8.00
2023-04-19T17:47:05.265Z,9.63
2023-04-19T17:49:31.878Z,13.38
2023-04-19T17:51:58.446Z,9.10
2023-04-19T17:54:25.215Z,8.70
2023-04-19T17:56:52.685Z,9.52
2023-04-19T17:59:19.709Z,8.75
2023-04-19T18:01:46.357Z,5.80
2023-04-19T18:04:18.484Z,5.90
2023-04-19T18:06:47.555Z,8.90
2023-04-19T18:09:25.028Z,6.03
2023-04-19T18:11:51.581Z,5.82
2023-04-19T18:14:18.138Z,7.57
2023-04-19T18:16:44.779Z,16.10
2023-04-19T18:19:12.075Z,28.70
2023-04-19T18:21:39.063Z,41.40
2023-04-19T18:24:06.994Z,42.78
2023-04-19T18:26:40.883Z,11.73
2023-04-19T18:29:08.198Z,14.75
2023-04-19T18:31:35.138Z,8.52
2023-04-19T18:34:02.284Z,8.77
2023-04-19T18:36:28.936Z,10.55
2023-04-19T18:38:55.860Z,9.15
2023-04-19T18:41:22.796Z,11.07
2023-04-19T18:44:08.113Z,8.52
2023-04-19T18:46:36.108Z,8.85
2023-04-19T18:49:02.818Z,8.35
2023-04-19T18:51:29.827Z,9.52
2023-04-19T18:53:56.629Z,10.60
2023-04-19T18:56:54.298Z,11.18
2023-04-19T18:59:10.668Z,10.00
2023-04-19T19:01:37.997Z,7.70
2023-04-19T19:06:34.962Z,7.40
2023-04-19T19:09:01.971Z,6.72
2023-04-19T19:11:51.801Z,5.65
2023-04-19T19:14:15.342Z,9.50
2023-04-19T19:16:51.268Z,5.88
2023-04-19T19:19:20.722Z,5.28
2023-04-19T19:21:47.664Z,7.75
2023-04-19T19:24:14.811Z,7.68
2023-04-19T19:26:43.751Z,10.20
2023-04-19T19:29:16.030Z,9.80
2023-04-19T19:31:43.530Z,8.93
2023-04-19T19:34:24.301Z,7.97
2023-04-19T19:36:54.486Z,9.02
2023-04-19T19:39:21.853Z,7.63
2023-04-19T19:42:05.236Z,8.65
2023-04-19T19:44:33.665Z,5.55
2023-04-19T19:47:00.705Z,8.48
2023-04-19T19:49:28.669Z,5.95
2023-04-19T19:51:59.299Z,7.57
2023-04-19T19:54:26.649Z,9.07
2023-04-19T19:57:35.609Z,12.45
2023-04-19T19:59:50.359Z,7.20
2023-04-19T20:02:22.164Z,7.05
2023-04-19T20:04:51.008Z,5.68
2023-04-19T20:07:33.224Z,9.20
2023-04-19T20:10:08.613Z,6.75
2023-04-19T20:12:35.332Z,10.18
2023-04-19T20:15:03.316Z,7.60
2023-04-19T20:17:31.415Z,9.38
2023-04-19T20:19:58.319Z,8.73
2023-04-19T20:22:25.366Z,9.38
2023-04-19T20:24:53.058Z,7.22
2023-04-19T20:27:19.804Z,5.60
2023-04-19T20:29:46.378Z,7.38
2023-04-19T20:32:13.551Z,6.68
2023-04-19T20:34:40.613Z,8.32
2023-04-19T20:37:07.574Z,7.78
2023-04-19T20:39:34.788Z,7.13
2023-04-19T20:42:02.620Z,11.07
2023-04-19T20:44:29.570Z,6.15
2023-04-19T20:46:56.670Z,7.93
2023-04-19T20:49:23.386Z,7.13
2023-04-19T20:51:51.486Z,7.32
2023-04-19T20:54:19.190Z,6.40
2023-04-19T20:56:47.770Z,7.47
2023-04-19T20:59:14.519Z,7.55
2023-04-19T21:01:42.482Z,8.57
2023-04-19T21:04:09.338Z,6.78
2023-04-19T21:06:36.248Z,8.27
2023-04-19T21:09:02.890Z,9.10
2023-04-19T21:11:29.495Z,8.32
2023-04-19T21:13:56.310Z,5.53
2023-04-19T21:16:23.183Z,7.50
2023-04-19T21:18:50.912Z,7.88
2023-04-19T21:21:17.544Z,9.45
2023-04-19T21:23:44.991Z,8.82
2023-04-19T21:26:11.851Z,6.32
2023-04-19T21:28:38.590Z,6.63
2023-04-19T21:31:05.405Z,8.70
2023-04-19T21:33:32.068Z,7.18
2023-04-19T21:35:58.918Z,9.02
2023-04-19T21:38:25.497Z,11.40
2023-04-19T21:40:52.207Z,9.90
2023-04-19T21:43:18.985Z,12.65
2023-04-19T21:45:45.549Z,13.57
2023-04-19T21:48:12.159Z,9.00
2023-04-19T21:50:38.787Z,8.63
2023-04-19T21:53:05.524Z,8.65
2023-04-19T21:55:32.470Z,8.40
2023-04-19T21:57:59.186Z,8.82
2023-04-19T22:00:25.754Z,9.10
2023-04-19T22:02:52.518Z,31.40
2023-04-19T22:05:19.463Z,10.27
2023-04-19T22:07:47.431Z,11.02
2023-04-19T22:10:13.984Z,8.40
2023-04-19T22:12:51.282Z,7.75
2023-04-19T22:15:25.931Z,8.15
2023-04-19T22:17:52.794Z,12.13
2023-04-19T22:20:19.858Z,10.40
2023-04-19T22:22:46.553Z,11.02
2023-04-19T22:25:13.154Z,10.02
2023-04-19T22:27:39.753Z,8.45
2023-04-19T22:30:07.657Z,8.88
2023-04-19T22:32:34.460Z,9.00
2023-04-19T22:35:01.100Z,8.32
2023-04-19T22:37:27.745Z,10.52
2023-04-19T22:39:54.323Z,12.02
2023-04-19T22:42:21.276Z,11.45
2023-04-19T22:44:47.917Z,11.68
2023-04-19T22:47:15.220Z,11.43
2023-04-19T22:49:43.146Z,12.13
2023-04-19T22:52:10.496Z,12.57
2023-04-19T22:54:37.049Z,12.02
2023-04-19T22:57:03.933Z,13.93
2023-04-19T22:59:30.716Z,15.00
2023-04-19T23:01:57.466Z,14.80
2023-04-19T23:04:27.104Z,15.82
2023-04-19T23:06:53.805Z,11.63
2023-04-19T23:09:20.411Z,12.48
2023-04-19T23:11:47.834Z,11.38
2023-04-19T23:14:18.435Z,10.90
2023-04-19T23:16:46.138Z,11.05
2023-04-19T23:19:12.824Z,9.85
2023-04-19T23:21:39.409Z,15.10
2023-04-19T23:24:06.242Z,13.27
2023-04-19T23:26:32.873Z,13.98
2023-04-19T23:28:59.510Z,13.98
2023-04-19T23:31:26.187Z,11.75
2023-04-19T23:33:52.818Z,13.95
2023-04-19T23:36:19.425Z,11.88
2023-04-19T23:38:46.215Z,11.23
2023-04-19T23:41:13.114Z,18.70
2023-04-19T23:43:39.731Z,16.33
2023-04-19T23:46:07.110Z,17.52
2023-04-19T23:48:33.811Z,16.40
2023-04-19T23:51:01.432Z,15.45
2023-04-19T23:53:28.018Z,14.32
2023-04-19T23:55:54.621Z,15.13
2023-04-19T23:58:21.441Z,14.55
